Bennington, Kansas
Current Conditions -  °F | °C
As of 5:53 AM on Monday 22 Dec 2014 (Local Time) from KSLN Reporting Station
Overcast Overcast  
Wind Chill: 40°   Ceiling: 500
Heat Index: 45°   Visibility: 7mi
Dew Point: 43°   Wind: 10mph
Humidity: 93%   Direction: 180°S
Pressure: 29.54"   Gusts: NA
Location:  39.03°N, 97.59°W
Report Text: KSLN 221153Z AUTO 18009KT 7SM OVC005 07/06 A2954 RMK AO2 SLP004 60000 70001 T00720061 10072 20072 56010
Loading
Personal Weather Stations






























Interactive Weather Map New forecast layout! Learn more

10-Day Weather Forecast

Advertisements
Track Severe Weather on mobile